• Join FlightAware (Why Join?)
  • Login
  • US Flag 
10:46PM EDT


 

Airport Tracker/Info


-or-


 

Live Flight TrackerFlight Track Log ✈ UAL3741 ✈ 25-Apr-2013 ✈ KORD - KPHL

Flight Track Log - Related Links

Times and Time Zones

All times are in EDT time to prevent confusion due to time zone crossing. See the UAL3741 flight status page for this flight to view local times or setup timezone preferences in your user account.

Time Position Orientation Groundspeed Altitude Reporting Facility
EDT Latitude Longitude Course Direction KTS MPH feet Rate Location/Type
01:24PM 41.9000 -87.8667 129° Southeast 209 241 3,700  Level Chicago TRACON
01:25PM 41.8500 -87.7833 129° Southeast 275 316 5,900 2,100 Climbing Chicago TRACON
01:27PM 41.8747 -87.5678 81° East 290 334 11,000 1,920 Climbing Chicago Center
01:28PM 41.8958 -87.4217 79° East 334 384 12,600 1,260 Climbing Chicago Center
01:29PM 41.9150 -87.2764 80° East 387 445 13,700 1,200 Climbing Chicago Center
01:30PM 41.9375 -87.1214 79° East 420 483 15,200 1,440 Climbing Chicago Center
01:31PM 41.9469 -86.9581 86° East 435 501 16,800 1,320 Climbing Chicago Center
01:32PM 41.9494 -86.7894 89° East 450 518 18,000 1,380 Climbing Chicago Center
01:33PM 41.9519 -86.6003 89° East 458 527 19,700 1,500 Climbing Chicago Center
01:34PM 41.9536 -86.4272 89° East 465 535 21,200 1,320 Climbing Chicago Center
01:35PM 41.9550 -86.2519 89° East 466 536 22,500 1,200 Climbing Chicago Center
01:36PM 41.9425 -86.0739 95° East 476 548 23,700 1,140 Climbing Chicago Center
01:37PM 41.9253 -85.8950 97° East 482 555 24,900 1,260 Climbing Chicago Center
01:38PM 41.9050 -85.6775 97° East 487 560 26,400 1,200 Climbing Chicago Center
01:39PM 41.8869 -85.4944 97° East 489 563 27,500 960 Climbing Chicago Center
01:42PM 41.8517 -85.1136 97° East 489 563 29,500 900 Climbing Cleveland Center
01:43PM 41.8317 -84.9283 98° East 489 563 30,400 840 Climbing Cleveland Center
01:44PM 41.8136 -84.7403 97° East 495 570 31,200 780 Climbing Cleveland Center
01:45PM 41.7933 -84.5522 98° East 507 583 32,000 780 Climbing Cleveland Center
01:46PM 41.7789 -84.3564 96° East 507 583 32,800 720 Climbing Cleveland Center
01:47PM 41.7731 -84.1472 92° East 512 589 33,500 660 Climbing Cleveland Center
01:48PM 41.7747 -83.9553 89° East 517 595 34,200 600 Climbing Cleveland Center
01:49PM 41.7722 -83.7572 91° East 517 595 34,800 600 Climbing Cleveland Center
01:50PM 41.7692 -83.5594 91° East 523 602 35,400 540 Climbing Cleveland Center
01:51PM 41.7511 -83.3636 97° East 523 602 35,900 480 Climbing Cleveland Center
01:52PM 41.7322 -83.1875 98° East 531 611 36,400 480 Climbing Cleveland Center
01:53PM 41.7136 -82.9922 97° East 531 611 36,900 300 Climbing Cleveland Center
01:54PM 41.6947 -82.7939 97° East 531 611 37,000  Climbing Cleveland Center
01:55PM 41.6733 -82.5986 98° East 531 611 37,000  Level Cleveland Center
01:56PM 41.6536 -82.4033 98° East 531 611 37,000  Level Cleveland Center
01:57PM 41.6336 -82.2056 98° East 526 605 37,000  Level Cleveland Center
01:58PM 41.6111 -82.0133 99° East 526 605 37,000  Level Cleveland Center
01:59PM 41.5906 -81.8131 98° East 526 605 37,000  Level Cleveland Center
02:00PM 41.5656 -81.5989 99° East 526 605 37,000  Level Cleveland Center
02:01PM 41.5422 -81.4042 99° East 526 605 37,000  Level Cleveland Center
02:02PM 41.5100 -81.2097 102° East 526 605 37,000  Level Cleveland Center
02:03PM 41.4317 -81.0483 123° Southeast 512 589 37,000  Level Cleveland Center
02:04PM 41.3319 -80.9094 134° Southeast 512 589 37,000  Level Cleveland Center
02:05PM 41.2322 -80.7708 134° Southeast 517 595 37,000  Level Cleveland Center
02:06PM 41.1450 -80.6492 134° Southeast 517 595 37,000  Level Cleveland Center
02:07PM 41.0386 -80.5006 133° Southeast 507 583 37,000  Level Cleveland Center
02:08PM 40.9406 -80.3661 134° Southeast 507 583 37,000  Level Cleveland Center
02:09PM 40.8442 -80.2400 135° Southeast 502 578 37,000  Level Cleveland Center
02:10PM 40.7769 -80.0842 120° Southeast 486 559 37,000  Level Cleveland Center
02:11PM 40.7242 -79.9339 115° Southeast 494 568 37,000  Level Cleveland Center
02:12PM 40.6647 -79.7703 116° Southeast 494 568 37,000  Level Cleveland Center
02:13PM 40.6050 -79.6067 116° Southeast 489 563 37,000 -420 Level Cleveland Center
02:14PM 40.5450 -79.4411 115° Southeast 489 563 36,200 -720 Descending Cleveland Center
02:15PM 40.4764 -79.2675 117° Southeast 489 563 35,600 -840 Descending Cleveland Center
02:16PM 40.4161 -79.1022 116° Southeast 489 563 34,600 -1,020 Descending Cleveland Center
02:17PM 40.3556 -78.9428 116° Southeast 489 563 33,600 -1,380 Descending Cleveland Center
02:18PM 40.3178 -78.7858 107° East 489 563 31,900 -1,800 Descending Cleveland Center
02:19PM 40.3147 -78.5981 91° East 494 568 30,100 -1,860 Descending Cleveland Center
02:20PM 40.3156 -78.4183 90° East 494 568 28,300 -1,800 Descending Cleveland Center
02:21PM 40.3128 -78.1428 91° East 487 560 25,500 -1,260 Descending New York Center
02:22PM 40.3128 -77.9739 90° East 474 545 25,000 -300 Descending New York Center
02:23PM 40.3103 -77.8075 91° East 469 540 25,000 -360 Level New York Center
02:24PM 40.3097 -77.6414 90° East 458 527 24,400 -900 Descending New York Center
02:25PM 40.3072 -77.4642 91° East 469 540 23,300 -1,200 Descending New York Center
02:26PM 40.3017 -77.2675 92° East 488 562 22,000 -1,200 Descending New York Center
02:27PM 40.3008 -77.0906 90° East 488 562 20,900 -1,140 Descending New York Center
02:28PM 40.2661 -76.9189 105° East 483 556 19,800 -1,140 Descending New York Center
02:29PM 40.2392 -76.7531 102° East 473 544 18,700 -960 Descending New York Center
02:30PM 40.2150 -76.6069 102° East 468 539 17,900 -1,380 Descending New York Center
02:31PM 40.1703 -76.4564 111° Southeast 450 518 16,000 -2,040 Descending New York Center
02:32PM 40.1256 -76.3036 111° Southeast 418 481 13,800 -1,980 Descending New York Center
02:33PM 40.1111 -76.1667 98° East 397 457 12,100 -1,680 Descending New York Center
02:34PM 40.1036 -76.0547 95° East 355 409 10,600 -1,440 Descending New York Center
02:35PM 40.0961 -75.9403 95° East 329 379 9,200 -1,260 Descending New York Center
02:36PM 40.0864 -75.8256 96° East 299 344 8,100 -1,020 Descending New York Center
02:37PM 40.0786 -75.7192 95° East 294 338 7,200 -1,020 Descending New York Center
02:38PM 40.0744 -75.6131 93° East 294 338 6,100 -660 Descending New York Center
02:39PM 40.0703 -75.5122 93° East 289 333 6,000 -60 Descending New York Center
02:40PM 40.0639 -75.4114 95° East 289 333 6,000  Level New York Center
02:41PM 40.0592 -75.3189 94° East 267 307 6,000  Level New York Center
02:42PM 40.0414 -75.2364 106° East 240 276 6,000  Level New York Center
02:42PM 40.0333 -75.2167 118° Southeast 244 281 6,000  Level Philadelphia TRACON
02:43PM 40.0167 -75.1333 105° East 233 268 6,000 -480 Level Philadelphia TRACON
02:44PM 40.0000 -75.0667 108° East 213 245 5,100 -1,380 Descending Philadelphia TRACON
02:45PM 39.9833 -75.0000 108° East 197 227 3,300 -1,080 Descending Philadelphia TRACON
02:46PM 39.9333 -74.9833 166° South 201 231 3,000 -240 Descending Philadelphia TRACON
02:47PM 39.9167 -75.0500 252° West 178 205 2,900 -600 Descending Philadelphia TRACON
02:49PM 39.9000 -75.1167 252° West 174 200 1,700 -960 Descending Philadelphia TRACON
02:49PM 39.8833 -75.1667 247° West 142 163 1,000 -780 Descending Philadelphia TRACON
02:52PM 39.8667 -75.2333 247° West  Level FlightAware Approximate
02:59PM 39.8722 -75.2409 247° West  Level Estimated